Time;durP1;ratioP1;P1;durP2;ratioP2;P2;SDS_P1;SDS_P2;PMS_P1;PMS_P2;Temp;Humidity;BMP_temperature;BMP_pressure;BME280_temperature;BME280_humidity;BME280_pressure;Samples;Min_cycle;Max_cycle;Signal;HPM_P1;HPM_P2
2023/10/31 00:02:14;;;;;;;11.77;6.65;;;11.30;99.90;;;;;;5083173;28;20051;-63
2023/10/31 00:04:40;;;;;;;12.98;6.03;;;11.30;99.90;;;;;;5080363;28;20307;-63
2023/10/31 00:07:06;;;;;;;12.30;6.47;;;11.30;99.90;;;;;;5081523;28;20442;-63
2023/10/31 00:09:31;;;;;;;11.18;6.28;;;11.30;99.90;;;;;;5080509;28;20411;-63
2023/10/31 00:11:58;;;;;;;11.70;5.70;;;11.20;99.90;;;;;;5080109;28;20081;-63
2023/10/31 00:14:24;;;;;;;10.00;6.15;;;11.30;99.90;;;;;;5081647;28;20040;-63
2023/10/31 00:16:49;;;;;;;13.10;5.60;;;11.30;99.90;;;;;;5076228;28;20039;-63
2023/10/31 00:19:15;;;;;;;9.77;4.50;;;11.20;99.90;;;;;;5079911;28;20036;-63
2023/10/31 00:21:41;;;;;;;9.00;5.00;;;11.20;99.90;;;;;;5079490;28;20063;-63
2023/10/31 00:24:07;;;;;;;10.93;5.43;;;11.20;99.90;;;;;;5076944;28;20036;-63
2023/10/31 00:26:32;;;;;;;12.57;5.22;;;11.10;99.90;;;;;;5078154;28;20086;-63
2023/10/31 00:28:58;;;;;;;8.27;4.30;;;11.10;99.90;;;;;;5083997;28;20479;-63
2023/10/31 00:31:24;;;;;;;8.95;3.75;;;11.10;99.90;;;;;;5082269;28;20046;-63
2023/10/31 00:33:49;;;;;;;9.07;2.95;;;11.10;99.90;;;;;;5080194;28;20328;-63
2023/10/31 00:36:15;;;;;;;10.23;2.80;;;11.00;99.90;;;;;;5084075;28;20040;-62
2023/10/31 00:38:41;;;;;;;8.10;3.30;;;11.00;99.90;;;;;;5073066;28;20047;-62
2023/10/31 00:41:07;;;;;;;8.75;3.28;;;11.00;99.90;;;;;;5073093;28;20068;-63
2023/10/31 00:43:32;;;;;;;10.82;2.80;;;11.00;99.90;;;;;;5080361;28;20093;-63
2023/10/31 00:45:58;;;;;;;8.82;2.83;;;10.90;99.90;;;;;;5081025;28;20450;-63
2023/10/31 00:48:24;;;;;;;13.05;4.55;;;10.80;99.90;;;;;;5079243;28;20131;-63
2023/10/31 00:50:50;;;;;;;9.95;3.30;;;10.80;99.90;;;;;;5076033;28;20403;-63
2023/10/31 00:53:16;;;;;;;7.43;2.75;;;10.80;99.90;;;;;;5065467;28;20044;-62
2023/10/31 00:55:42;;;;;;;7.85;3.10;;;10.80;99.90;;;;;;5080120;28;20067;-63
2023/10/31 00:58:08;;;;;;;9.32;2.83;;;10.80;99.90;;;;;;5079297;28;20036;-63
2023/10/31 01:00:34;;;;;;;5.07;2.60;;;10.80;99.90;;;;;;5064317;28;20042;-63
2023/10/31 01:03:00;;;;;;;10.27;3.10;;;10.80;99.90;;;;;;5077741;28;20033;-62
2023/10/31 01:05:28;;;;;;;10.65;2.97;;;10.80;99.90;;;;;;5061126;28;20032;-63
2023/10/31 01:07:54;;;;;;;6.85;2.40;;;10.80;99.90;;;;;;5082355;28;20044;-63
2023/10/31 01:10:20;;;;;;;7.15;2.60;;;10.80;99.90;;;;;;5081356;28;20166;-63
2023/10/31 01:12:46;;;;;;;8.82;3.00;;;10.80;99.90;;;;;;5079173;28;20470;-63
2023/10/31 01:15:11;;;;;;;7.78;2.60;;;10.80;99.90;;;;;;5080041;28;20072;-63
2023/10/31 01:17:37;;;;;;;8.02;2.70;;;10.90;99.90;;;;;;5082094;28;20131;-62
2023/10/31 01:20:06;;;;;;;6.55;3.05;;;10.90;99.90;;;;;;5066651;28;20450;-63
2023/10/31 01:22:32;;;;;;;7.93;2.92;;;10.80;99.90;;;;;;5080145;28;20040;-63
2023/10/31 01:24:58;;;;;;;9.75;3.60;;;10.90;99.90;;;;;;5081669;28;20554;-62
2023/10/31 01:27:23;;;;;;;7.88;2.90;;;10.90;99.90;;;;;;5081795;28;20190;-63
2023/10/31 01:29:49;;;;;;;9.52;3.72;;;10.90;99.90;;;;;;5082581;28;20044;-62
2023/10/31 01:32:15;;;;;;;11.40;4.57;;;10.80;99.90;;;;;;5066078;28;20111;-62
2023/10/31 01:34:40;;;;;;;11.15;3.97;;;10.80;99.90;;;;;;5082882;28;20043;-63
2023/10/31 01:37:06;;;;;;;10.05;4.78;;;10.80;99.90;;;;;;5080371;28;20060;-62
2023/10/31 01:39:32;;;;;;;13.00;5.10;;;10.80;99.90;;;;;;5084499;28;20044;-63
2023/10/31 01:41:58;;;;;;;10.75;4.68;;;10.80;99.90;;;;;;5086955;28;20426;-63
2023/10/31 01:44:23;;;;;;;7.60;4.38;;;10.80;99.90;;;;;;5084334;28;20044;-63
2023/10/31 01:46:49;;;;;;;10.60;5.53;;;10.80;99.90;;;;;;5068736;28;20477;-63
2023/10/31 01:49:15;;;;;;;9.75;5.75;;;10.80;99.90;;;;;;5085676;28;20040;-63
2023/10/31 01:51:41;;;;;;;11.25;5.55;;;10.80;99.90;;;;;;5077063;28;20446;-63
2023/10/31 01:54:09;;;;;;;11.05;6.15;;;10.80;99.90;;;;;;5076679;28;20066;-63
2023/10/31 01:56:35;;;;;;;10.68;5.15;;;10.80;99.90;;;;;;5068677;28;20671;-64
2023/10/31 01:59:01;;;;;;;10.52;5.22;;;10.70;99.90;;;;;;5084943;28;20036;-63
2023/10/31 02:01:28;;;;;;;14.45;5.82;;;10.80;99.90;;;;;;5086188;28;20031;-63
2023/10/31 02:03:54;;;;;;;11.32;4.35;;;10.80;99.90;;;;;;5080458;28;20111;-63
2023/10/31 02:06:21;;;;;;;10.57;3.40;;;10.80;99.90;;;;;;5081514;28;20198;-63
2023/10/31 02:08:48;;;;;;;13.98;3.80;;;10.80;99.90;;;;;;5084985;28;20052;-63
2023/10/31 02:11:13;;;;;;;15.27;3.83;;;10.80;99.90;;;;;;5082846;28;20117;-63
2023/10/31 02:13:39;;;;;;;9.35;3.47;;;10.80;99.90;;;;;;5084807;28;20487;-63
2023/10/31 02:16:05;;;;;;;11.85;4.20;;;10.80;99.90;;;;;;5087261;28;20104;-63
2023/10/31 02:18:32;;;;;;;12.93;4.20;;;10.80;99.90;;;;;;5083745;28;20104;-63
2023/10/31 02:20:58;;;;;;;11.63;4.05;;;10.80;99.90;;;;;;5082695;28;20036;-63
2023/10/31 02:23:24;;;;;;;15.68;4.55;;;10.80;99.90;;;;;;5084324;28;20545;-63
2023/10/31 02:25:49;;;;;;;14.13;4.05;;;10.80;99.90;;;;;;5075000;28;20036;-63
2023/10/31 02:28:15;;;;;;;15.73;4.15;;;10.80;99.90;;;;;;5080473;28;20423;-63
2023/10/31 02:30:41;;;;;;;10.10;3.40;;;10.80;99.90;;;;;;5068924;28;20101;-63
2023/10/31 02:33:07;;;;;;;8.88;3.17;;;10.80;99.90;;;;;;5085654;28;20067;-63
2023/10/31 02:35:32;;;;;;;8.38;3.30;;;10.70;99.90;;;;;;5084117;28;20041;-63
2023/10/31 02:37:58;;;;;;;11.15;2.90;;;10.80;99.90;;;;;;5080626;28;20048;-63
2023/10/31 02:40:24;;;;;;;10.65;2.88;;;10.70;99.90;;;;;;5084301;28;20120;-63
2023/10/31 02:42:50;;;;;;;11.15;3.10;;;10.70;99.90;;;;;;5064768;28;20064;-63
2023/10/31 02:45:15;;;;;;;11.32;3.95;;;10.70;99.90;;;;;;5079883;28;20083;-63
2023/10/31 02:47:41;;;;;;;13.27;3.55;;;10.70;99.90;;;;;;5081443;28;20051;-63
2023/10/31 02:50:07;;;;;;;14.90;3.40;;;10.70;99.90;;;;;;5081921;28;20036;-63
2023/10/31 02:52:33;;;;;;;14.45;4.05;;;10.70;99.90;;;;;;5079219;28;20454;-63
2023/10/31 02:54:59;;;;;;;7.63;3.17;;;10.80;99.90;;;;;;5064238;28;20068;-63
2023/10/31 02:57:25;;;;;;;17.20;4.47;;;10.70;99.90;;;;;;5083291;28;20055;-63
2023/10/31 02:59:50;;;;;;;12.57;4.20;;;10.80;99.90;;;;;;5083235;28;20039;-63
2023/10/31 03:02:16;;;;;;;10.00;4.03;;;10.80;99.90;;;;;;5066243;28;20113;-63
2023/10/31 03:04:42;;;;;;;11.73;4.30;;;10.80;99.90;;;;;;5062627;28;20040;-63
2023/10/31 03:07:07;;;;;;;13.90;4.32;;;10.80;99.90;;;;;;5084967;28;20355;-63
2023/10/31 03:09:36;;;;;;;12.50;4.32;;;10.80;99.90;;;;;;5083184;28;20037;-63
2023/10/31 03:12:02;;;;;;;15.57;5.18;;;10.80;99.90;;;;;;5084086;28;20043;-63
2023/10/31 03:14:28;;;;;;;15.55;5.30;;;10.80;99.90;;;;;;5083619;28;20407;-63
2023/10/31 03:16:53;;;;;;;13.90;4.25;;;10.80;99.90;;;;;;5080198;28;20030;-63
2023/10/31 03:19:19;;;;;;;13.82;4.57;;;10.80;99.90;;;;;;5083721;28;20562;-63
2023/10/31 03:21:45;;;;;;;13.90;4.22;;;10.80;99.90;;;;;;5081123;28;20036;-64
2023/10/31 03:24:10;;;;;;;10.73;4.43;;;10.80;99.90;;;;;;5082730;28;20399;-63
2023/10/31 03:26:36;;;;;;;13.85;3.63;;;10.80;99.90;;;;;;5078820;28;20083;-63
2023/10/31 03:29:02;;;;;;;13.48;4.28;;;10.80;99.90;;;;;;5062942;28;20044;-63
2023/10/31 03:31:30;;;;;;;15.07;5.57;;;10.90;99.90;;;;;;5084994;28;20059;-63
2023/10/31 03:33:56;;;;;;;12.10;4.90;;;10.90;99.90;;;;;;5084529;28;20036;-63
2023/10/31 03:36:22;;;;;;;12.55;5.15;;;10.90;99.90;;;;;;5085467;28;20043;-63
2023/10/31 03:38:47;;;;;;;12.07;4.70;;;10.90;99.90;;;;;;5081533;28;20442;-63
2023/10/31 03:41:13;;;;;;;11.95;4.00;;;10.90;99.90;;;;;;5081619;28;20036;-63
2023/10/31 03:43:39;;;;;;;11.80;3.78;;;11.00;99.90;;;;;;5078987;28;20044;-63
2023/10/31 03:46:05;;;;;;;12.20;3.70;;;11.00;99.90;;;;;;5079936;28;20121;-63
2023/10/31 03:48:31;;;;;;;13.88;3.60;;;11.00;99.90;;;;;;5082795;28;20042;-63
2023/10/31 03:50:56;;;;;;;11.50;2.95;;;10.90;99.90;;;;;;5081572;28;20415;-63
2023/10/31 03:53:22;;;;;;;6.57;1.48;;;10.90;99.90;;;;;;5081770;28;20529;-63
2023/10/31 03:55:48;;;;;;;7.40;2.28;;;11.00;99.90;;;;;;5090846;22;20036;-61
2023/10/31 03:58:14;;;;;;;4.57;1.45;;;11.00;99.90;;;;;;5082481;28;20085;-61
2023/10/31 04:00:40;;;;;;;6.35;2.00;;;10.90;99.90;;;;;;5080687;28;20051;-59
2023/10/31 04:03:07;;;;;;;7.85;2.15;;;11.00;99.90;;;;;;5076539;28;20359;-61
2023/10/31 04:05:33;;;;;;;7.32;1.95;;;11.00;99.90;;;;;;5064191;28;20041;-62
2023/10/31 04:07:59;;;;;;;7.07;2.13;;;11.00;99.90;;;;;;5057260;28;20106;-60
2023/10/31 04:10:25;;;;;;;7.35;1.92;;;11.00;99.90;;;;;;5065344;28;20036;-60
2023/10/31 04:12:51;;;;;;;5.85;1.92;;;11.00;99.90;;;;;;5063501;28;20495;-61
2023/10/31 04:15:16;;;;;;;8.48;2.45;;;11.00;99.90;;;;;;5059905;28;20044;-59
2023/10/31 04:17:42;;;;;;;8.05;2.25;;;11.10;99.90;;;;;;5057091;28;20051;-60
2023/10/31 04:20:08;;;;;;;6.65;2.28;;;11.00;99.90;;;;;;5060630;28;20037;-61
2023/10/31 04:22:34;;;;;;;11.05;2.40;;;11.10;99.90;;;;;;5063547;28;20063;-60
2023/10/31 04:24:59;;;;;;;6.68;2.38;;;11.10;99.90;;;;;;5063283;28;20036;-60
2023/10/31 04:27:25;;;;;;;7.68;2.53;;;11.10;99.90;;;;;;5045311;28;20462;-61
2023/10/31 04:29:51;;;;;;;7.00;2.38;;;11.10;99.90;;;;;;5060711;28;20036;-59
2023/10/31 04:32:16;;;;;;;6.28;2.03;;;11.10;99.90;;;;;;5060274;28;20047;-59
2023/10/31 04:34:42;;;;;;;8.07;2.20;;;11.10;99.90;;;;;;5058256;28;20101;-61
2023/10/31 04:37:08;;;;;;;6.43;2.15;;;11.10;99.90;;;;;;5061388;28;20537;-59
2023/10/31 04:39:33;;;;;;;6.82;1.80;;;11.10;99.90;;;;;;5061641;28;20553;-60
2023/10/31 04:41:59;;;;;;;3.78;2.05;;;11.00;99.90;;;;;;5046704;28;20040;-61
2023/10/31 04:44:25;;;;;;;7.13;2.25;;;11.00;99.90;;;;;;5047664;28;20047;-59
2023/10/31 04:46:50;;;;;;;6.30;1.83;;;11.00;99.90;;;;;;5058882;28;20040;-61
2023/10/31 04:49:16;;;;;;;4.75;1.42;;;11.00;99.90;;;;;;5057241;28;20505;-61
2023/10/31 04:51:42;;;;;;;4.72;1.35;;;11.00;99.90;;;;;;5058172;28;20055;-60
2023/10/31 04:54:08;;;;;;;5.60;1.33;;;11.00;99.90;;;;;;5014017;28;20051;-61
2023/10/31 04:56:34;;;;;;;4.63;1.25;;;11.00;99.90;;;;;;5060058;28;20036;-61
2023/10/31 04:58:59;;;;;;;2.60;0.90;;;11.00;99.90;;;;;;5062772;28;20044;-62
2023/10/31 05:01:25;;;;;;;3.90;1.25;;;11.00;99.90;;;;;;5062797;28;20033;-60
2023/10/31 05:03:52;;;;;;;4.95;1.42;;;11.00;99.90;;;;;;5056730;28;20407;-61
2023/10/31 05:06:22;;;;;;;4.38;1.50;;;11.00;99.90;;;;;;5063102;28;20495;-61
2023/10/31 05:08:48;;;;;;;4.28;1.63;;;10.90;99.90;;;;;;5056296;28;20051;-61
2023/10/31 05:11:17;;;;;;;5.07;1.45;;;11.00;99.90;;;;;;5057120;28;20082;-60
2023/10/31 05:13:44;;;;;;;6.40;1.73;;;11.00;99.90;;;;;;5052115;28;20130;-62
2023/10/31 05:16:10;;;;;;;5.20;1.63;;;11.00;99.90;;;;;;5059107;28;20048;-60
2023/10/31 05:18:37;;;;;;;4.55;1.70;;;11.00;99.90;;;;;;5040379;28;20400;-61
2023/10/31 05:21:04;;;;;;;6.47;1.83;;;11.00;99.90;;;;;;5062827;28;20124;-61
2023/10/31 05:23:29;;;;;;;5.38;1.75;;;11.00;99.90;;;;;;5046709;28;20099;-60
2023/10/31 05:25:55;;;;;;;4.57;2.05;;;11.00;99.90;;;;;;5060153;28;20071;-59
2023/10/31 05:28:21;;;;;;;5.82;2.38;;;11.00;99.90;;;;;;5045292;28;20053;-61
2023/10/31 05:30:47;;;;;;;10.45;2.80;;;11.00;99.90;;;;;;5064119;28;20392;-61
2023/10/31 05:33:15;;;;;;;6.85;2.72;;;11.00;99.90;;;;;;5045209;28;20131;-61
2023/10/31 05:35:41;;;;;;;7.32;2.58;;;11.10;99.90;;;;;;5061775;28;20060;-60
2023/10/31 05:38:07;;;;;;;8.38;2.58;;;11.10;99.90;;;;;;5063588;28;20048;-59
2023/10/31 05:40:35;;;;;;;9.07;2.55;;;11.10;99.90;;;;;;5046296;28;20064;-60
2023/10/31 05:43:02;;;;;;;8.32;2.30;;;11.10;99.90;;;;;;5064240;28;20036;-60
2023/10/31 05:45:28;;;;;;;6.55;2.00;;;11.10;99.90;;;;;;5062487;28;20371;-60
2023/10/31 05:47:54;;;;;;;5.45;2.00;;;11.10;99.90;;;;;;5060804;28;20429;-61
2023/10/31 05:50:19;;;;;;;6.07;1.80;;;11.10;99.90;;;;;;5064748;28;20044;-61
2023/10/31 05:52:45;;;;;;;3.63;1.80;;;11.10;99.90;;;;;;5063316;28;20090;-61
2023/10/31 05:55:11;;;;;;;5.25;1.90;;;11.10;99.90;;;;;;5062678;28;20066;-60
2023/10/31 05:57:36;;;;;;;6.80;2.08;;;11.20;99.90;;;;;;5063282;28;20055;-60
2023/10/31 06:00:02;;;;;;;4.38;1.70;;;11.10;99.90;;;;;;5059366;28;20061;-59
2023/10/31 06:02:29;;;;;;;4.60;2.05;;;11.10;99.90;;;;;;5062627;28;20052;-60
2023/10/31 06:04:55;;;;;;;5.70;2.17;;;11.20;99.90;;;;;;5027424;28;20075;-60
2023/10/31 06:07:21;;;;;;;6.07;1.83;;;11.20;99.90;;;;;;5064271;28;20116;-59
2023/10/31 06:09:47;;;;;;;5.22;1.65;;;11.20;99.90;;;;;;5062636;28;20123;-61
2023/10/31 06:12:12;;;;;;;6.72;2.45;;;11.20;99.90;;;;;;5061521;28;20522;-60
2023/10/31 06:14:38;;;;;;;4.78;2.10;;;11.20;99.90;;;;;;5062858;28;20041;-60
2023/10/31 06:17:04;;;;;;;5.47;2.30;;;11.20;99.90;;;;;;5045993;28;20102;-60
2023/10/31 06:19:33;;;;;;;6.15;2.35;;;11.20;99.90;;;;;;5060706;28;20040;-59
2023/10/31 06:21:58;;;;;;;8.30;2.20;;;11.20;99.90;;;;;;5060927;28;20300;-61
2023/10/31 06:24:24;;;;;;;5.18;2.20;;;11.30;99.90;;;;;;5065432;28;20400;-58
2023/10/31 06:26:50;;;;;;;7.68;2.42;;;11.30;99.90;;;;;;5067219;28;20029;-61
2023/10/31 06:29:16;;;;;;;5.13;2.28;;;11.20;99.90;;;;;;5060216;28;20037;-60
2023/10/31 06:31:41;;;;;;;5.65;2.15;;;11.30;99.90;;;;;;5061625;28;20044;-60
2023/10/31 06:34:07;;;;;;;5.35;2.20;;;11.20;99.90;;;;;;5049945;28;20072;-59
2023/10/31 06:36:33;;;;;;;6.22;1.98;;;11.30;99.90;;;;;;5049385;28;20047;-60
2023/10/31 06:38:59;;;;;;;6.53;2.10;;;11.30;99.90;;;;;;5048251;28;20132;-61
2023/10/31 06:41:25;;;;;;;5.63;1.95;;;11.30;99.90;;;;;;5064355;28;20253;-60
2023/10/31 06:43:50;;;;;;;6.18;2.20;;;11.30;99.90;;;;;;5061611;28;20115;-59
2023/10/31 06:46:16;;;;;;;6.80;2.05;;;11.20;99.90;;;;;;5062522;28;20044;-60
2023/10/31 06:48:42;;;;;;;8.93;2.00;;;11.20;99.90;;;;;;5066679;28;20056;-61
2023/10/31 06:51:07;;;;;;;7.07;2.30;;;11.20;99.90;;;;;;5050152;28;20127;-59
2023/10/31 06:53:33;;;;;;;7.53;2.00;;;11.20;99.90;;;;;;5033402;28;20050;-60
2023/10/31 06:55:59;;;;;;;9.07;1.88;;;11.20;99.90;;;;;;5059778;28;20384;-60
2023/10/31 06:58:24;;;;;;;5.93;1.88;;;11.20;99.90;;;;;;5062864;28;20033;-60
2023/10/31 07:00:51;;;;;;;7.38;2.00;;;11.20;99.90;;;;;;5064023;28;20070;-60
2023/10/31 07:03:17;;;;;;;7.07;1.48;;;11.20;99.90;;;;;;5062596;28;20133;-61
2023/10/31 07:05:43;;;;;;;6.47;1.60;;;11.20;99.90;;;;;;5063413;28;20068;-61
2023/10/31 07:08:09;;;;;;;3.97;1.10;;;11.20;99.90;;;;;;5067357;28;20048;-61
2023/10/31 07:10:34;;;;;;;6.05;1.00;;;11.20;99.90;;;;;;5068182;28;20056;-61
2023/10/31 07:13:00;;;;;;;4.65;0.80;;;11.10;99.90;;;;;;5046995;28;20036;-61
2023/10/31 07:15:26;;;;;;;7.05;0.77;;;11.10;99.90;;;;;;5059441;28;20044;-61
2023/10/31 07:17:52;;;;;;;3.63;0.80;;;11.10;99.90;;;;;;5062079;28;20094;-61
2023/10/31 07:20:17;;;;;;;3.95;0.60;;;11.10;99.90;;;;;;5057728;28;20415;-61
2023/10/31 07:22:43;;;;;;;6.18;0.88;;;11.20;99.90;;;;;;5040526;28;20029;-60
2023/10/31 07:25:09;;;;;;;4.18;0.80;;;11.20;99.90;;;;;;5056432;28;20047;-61
2023/10/31 07:27:35;;;;;;;4.93;1.08;;;11.20;99.90;;;;;;5055574;28;20044;-61
2023/10/31 07:30:03;;;;;;;5.07;0.65;;;11.20;99.90;;;;;;5045648;28;20045;-61
2023/10/31 07:32:29;;;;;;;3.60;0.75;;;11.20;99.90;;;;;;5029823;28;20044;-61
2023/10/31 07:34:55;;;;;;;4.60;0.73;;;11.30;99.90;;;;;;5059287;28;20052;-61
2023/10/31 07:37:21;;;;;;;4.32;0.65;;;11.30;99.90;;;;;;5062662;28;20036;-61
2023/10/31 07:39:46;;;;;;;2.97;0.47;;;11.30;99.90;;;;;;5058885;28;20040;-61
2023/10/31 07:42:12;;;;;;;3.97;0.55;;;11.30;99.90;;;;;;5063796;28;20072;-61
2023/10/31 07:44:38;;;;;;;3.63;0.63;;;11.30;99.90;;;;;;5057536;28;20052;-61
2023/10/31 07:47:04;;;;;;;2.15;0.70;;;11.40;99.90;;;;;;5056705;28;20779;-61
2023/10/31 07:49:29;;;;;;;4.55;0.50;;;11.40;99.90;;;;;;5058434;28;20040;-61
2023/10/31 07:51:55;;;;;;;1.55;0.38;;;11.40;99.90;;;;;;5057184;28;20115;-61
2023/10/31 07:54:21;;;;;;;2.58;0.60;;;11.30;99.90;;;;;;5062515;28;20498;-61
2023/10/31 07:56:47;;;;;;;3.53;0.55;;;11.40;99.90;;;;;;5062724;28;20044;-61
2023/10/31 07:59:12;;;;;;;4.13;0.80;;;11.40;99.90;;;;;;5047096;28;20063;-61
2023/10/31 08:01:38;;;;;;;2.28;0.50;;;11.40;99.90;;;;;;5066511;28;20095;-61
2023/10/31 08:04:04;;;;;;;3.85;0.65;;;11.40;99.90;;;;;;5059540;28;20040;-61
2023/10/31 08:06:30;;;;;;;6.45;0.80;;;11.40;99.90;;;;;;5048777;28;20093;-61
2023/10/31 08:08:55;;;;;;;3.50;0.55;;;11.40;99.90;;;;;;5044321;28;20101;-61
2023/10/31 08:11:21;;;;;;;5.05;0.75;;;11.40;99.90;;;;;;5061299;28;20040;-61
2023/10/31 08:13:47;;;;;;;4.32;0.68;;;11.40;99.90;;;;;;5061951;28;20119;-60
2023/10/31 08:16:19;;;;;;;5.88;0.75;;;11.40;99.90;;;;;;5064186;28;20524;-61
2023/10/31 08:18:45;;;;;;;2.97;0.63;;;11.50;99.90;;;;;;5060484;28;20080;-61
2023/10/31 08:21:11;;;;;;;6.25;1.30;;;11.50;99.90;;;;;;5062058;28;20044;-61
2023/10/31 08:23:37;;;;;;;6.15;1.27;;;11.50;99.90;;;;;;5063406;28;20040;-61
2023/10/31 08:26:03;;;;;;;8.07;1.20;;;11.60;99.90;;;;;;5043938;28;20491;-61
2023/10/31 08:28:30;;;;;;;7.97;1.33;;;11.60;99.90;;;;;;5062895;28;20078;-61
2023/10/31 08:30:57;;;;;;;7.53;1.30;;;11.70;99.90;;;;;;5041449;28;20526;-61
2023/10/31 08:33:22;;;;;;;8.93;1.42;;;11.70;99.90;;;;;;5061165;28;20048;-61
2023/10/31 08:35:48;;;;;;;9.05;1.40;;;11.70;99.90;;;;;;5037597;28;20040;-61
2023/10/31 08:38:14;;;;;;;7.90;1.10;;;11.70;99.90;;;;;;5060113;28;20033;-61
2023/10/31 08:40:41;;;;;;;11.05;1.35;;;11.70;99.90;;;;;;5058658;28;20457;-61
2023/10/31 08:43:06;;;;;;;10.70;1.75;;;11.70;99.90;;;;;;5077244;28;20514;-60
2023/10/31 08:45:33;;;;;;;7.43;1.00;;;11.70;99.90;;;;;;5042790;28;20079;-61
2023/10/31 08:48:00;;;;;;;5.57;1.10;;;11.70;99.90;;;;;;5054493;28;20123;-61
2023/10/31 08:50:25;;;;;;;7.75;1.20;;;11.70;99.90;;;;;;5046582;28;20546;-61
2023/10/31 08:52:51;;;;;;;7.22;0.90;;;11.80;99.90;;;;;;5057567;28;20040;-61
2023/10/31 08:55:17;;;;;;;7.90;1.33;;;11.80;99.90;;;;;;5057091;28;20043;-61
2023/10/31 08:57:43;;;;;;;9.82;1.40;;;11.80;99.90;;;;;;5062019;28;20427;-61
2023/10/31 09:00:09;;;;;;;10.55;1.48;;;11.80;99.90;;;;;;5046904;28;20040;-61
2023/10/31 09:02:35;;;;;;;8.60;1.35;;;11.80;99.90;;;;;;5058558;28;20509;-61
2023/10/31 09:05:01;;;;;;;6.22;1.38;;;11.80;99.90;;;;;;5052481;28;20120;-61
2023/10/31 09:07:27;;;;;;;6.82;1.40;;;11.80;99.90;;;;;;5052197;28;20310;-61
2023/10/31 09:09:52;;;;;;;12.70;1.50;;;11.90;99.90;;;;;;5056955;28;20063;-61
2023/10/31 09:12:18;;;;;;;7.43;1.40;;;11.90;99.90;;;;;;5059199;28;20060;-61
2023/10/31 09:14:44;;;;;;;6.85;0.90;;;11.90;99.90;;;;;;5064032;28;20053;-61
2023/10/31 09:17:09;;;;;;;6.18;1.08;;;11.90;99.90;;;;;;5058692;28;20052;-61
2023/10/31 09:19:35;;;;;;;4.15;0.80;;;11.90;99.90;;;;;;5061825;28;20033;-61
2023/10/31 09:22:01;;;;;;;7.97;0.88;;;11.90;99.90;;;;;;5063546;28;20391;-61
2023/10/31 09:24:27;;;;;;;5.97;1.30;;;11.90;99.90;;;;;;5046978;28;20036;-61
2023/10/31 09:26:52;;;;;;;8.18;1.83;;;11.90;99.90;;;;;;5062725;28;20487;-61
2023/10/31 09:29:18;;;;;;;9.73;1.95;;;11.90;99.90;;;;;;5045215;28;20400;-61
2023/10/31 09:31:44;;;;;;;4.88;1.08;;;12.00;99.90;;;;;;5051392;28;20332;-61
2023/10/31 09:34:10;;;;;;;3.58;0.70;;;12.00;99.90;;;;;;5043802;28;20692;-61
2023/10/31 09:36:35;;;;;;;6.13;0.80;;;12.00;99.90;;;;;;5044704;28;20048;-61
2023/10/31 09:39:01;;;;;;;5.45;1.00;;;12.00;99.90;;;;;;5056294;28;20075;-61
2023/10/31 09:41:32;;;;;;;5.07;1.02;;;12.10;99.90;;;;;;5034990;28;20039;-62
2023/10/31 09:43:58;;;;;;;4.95;0.80;;;12.10;99.90;;;;;;5046332;28;20060;-61
2023/10/31 09:46:24;;;;;;;2.80;0.77;;;12.10;99.90;;;;;;5063516;28;20136;-61
2023/10/31 09:48:50;;;;;;;6.97;1.35;;;12.10;99.90;;;;;;5057605;28;20052;-61
2023/10/31 09:51:15;;;;;;;4.05;1.08;;;12.20;99.90;;;;;;5056145;28;20044;-61
2023/10/31 09:53:44;;;;;;;5.85;1.25;;;12.20;99.90;;;;;;5064448;28;20106;-61
2023/10/31 09:56:10;;;;;;;7.95;1.60;;;12.20;99.90;;;;;;5070248;28;20040;-61
2023/10/31 09:58:36;;;;;;;10.23;1.60;;;12.10;99.90;;;;;;5062222;28;20450;-61
2023/10/31 10:01:02;;;;;;;8.40;1.75;;;12.10;99.90;;;;;;5067064;28;20093;-61
2023/10/31 10:03:31;;;;;;;5.80;1.02;;;12.00;99.90;;;;;;5066045;28;20040;-61
2023/10/31 10:05:58;;;;;;;9.77;1.60;;;12.00;99.90;;;;;;5048894;28;20110;-61
2023/10/31 10:08:23;;;;;;;8.93;1.27;;;12.10;99.90;;;;;;5064371;28;20056;-60
2023/10/31 10:10:50;;;;;;;5.47;1.40;;;12.10;99.90;;;;;;5063294;28;20048;-60
2023/10/31 10:13:20;;;;;;;4.72;1.27;;;12.20;99.90;;;;;;5060203;28;20040;-61
2023/10/31 10:15:53;;;;;;;5.43;1.20;;;12.20;99.90;;;;;;5065052;28;20049;-60
2023/10/31 10:18:26;;;;;;;7.00;1.15;;;12.30;99.90;;;;;;5067321;28;20068;-60
2023/10/31 10:21:02;;;;;;;6.57;1.35;;;12.30;99.90;;;;;;5064359;28;20071;-61
2023/10/31 10:23:29;;;;;;;5.72;1.92;;;12.40;99.90;;;;;;5060863;28;20043;-60
2023/10/31 10:25:57;;;;;;;6.25;1.10;;;12.40;99.90;;;;;;5049965;28;20036;-60
2023/10/31 10:28:26;;;;;;;7.97;1.88;;;12.50;99.90;;;;;;5064339;28;20116;-60
2023/10/31 10:30:53;;;;;;;8.75;1.30;;;12.50;99.90;;;;;;5064249;28;20428;-60
2023/10/31 10:33:21;;;;;;;7.20;1.20;;;12.50;99.90;;;;;;5055626;28;20079;-61
2023/10/31 10:35:46;;;;;;;10.00;1.60;;;12.50;99.90;;;;;;5055345;28;20040;-61
2023/10/31 10:38:15;;;;;;;8.23;1.58;;;12.50;99.90;;;;;;5064037;28;20418;-61
2023/10/31 10:40:43;;;;;;;8.68;1.27;;;12.40;99.90;;;;;;5057887;28;20037;-61
2023/10/31 10:43:31;;;;;;;6.18;1.27;;;12.40;99.90;;;;;;5066750;28;20047;-60
2023/10/31 10:45:58;;;;;;;6.82;0.70;;;12.50;99.90;;;;;;5041069;28;23019;-60
2023/10/31 10:48:34;;;;;;;5.22;1.50;;;12.50;99.90;;;;;;5059047;28;20048;-60
2023/10/31 10:51:06;;;;;;;5.20;0.98;;;12.60;99.90;;;;;;5058984;28;20059;-60
2023/10/31 10:53:41;;;;;;;6.13;0.85;;;12.60;99.90;;;;;;5048515;28;20052;-60
2023/10/31 10:56:18;;;;;;;5.10;1.60;;;12.60;99.90;;;;;;5064792;28;20507;-60
2023/10/31 10:59:20;;;;;;;5.55;1.08;;;12.70;99.90;;;;;;5059308;28;20171;-60
2023/10/31 11:01:49;;;;;;;6.40;1.83;;;12.70;99.90;;;;;;5063056;28;20037;-60
2023/10/31 11:04:16;;;;;;;5.50;1.25;;;12.80;99.90;;;;;;5060306;28;20149;-60
2023/10/31 11:06:43;;;;;;;6.85;1.50;;;12.80;99.90;;;;;;5058556;28;20107;-60
2023/10/31 11:09:12;;;;;;;11.48;1.85;;;12.80;99.90;;;;;;5064945;28;20086;-60
2023/10/31 11:11:39;;;;;;;9.60;0.85;;;12.70;99.90;;;;;;5079931;28;20040;-61
2023/10/31 11:14:05;;;;;;;6.05;1.52;;;12.60;99.90;;;;;;5062498;28;20048;-61
2023/10/31 11:16:41;;;;;;;5.68;1.13;;;12.50;99.90;;;;;;5069370;28;20111;-59
2023/10/31 11:19:08;;;;;;;9.00;1.27;;;12.50;99.90;;;;;;5076229;28;20064;-60
2023/10/31 11:21:34;;;;;;;7.85;1.30;;;12.40;99.90;;;;;;5070536;28;20039;-61
2023/10/31 11:24:01;;;;;;;10.40;1.40;;;12.30;99.90;;;;;;5062411;28;20072;-61
2023/10/31 11:26:30;;;;;;;7.35;2.03;;;12.30;99.90;;;;;;5061818;28;20124;-61
2023/10/31 11:29:06;;;;;;;6.13;1.42;;;12.30;99.90;;;;;;5064295;28;20036;-61
2023/10/31 11:31:33;;;;;;;8.55;1.23;;;12.30;99.90;;;;;;5063894;28;20046;-61
2023/10/31 11:34:01;;;;;;;6.18;1.48;;;12.30;99.90;;;;;;5044461;28;20113;-60
2023/10/31 11:36:29;;;;;;;5.10;1.27;;;12.30;99.90;;;;;;5051503;28;20052;-61
2023/10/31 11:39:12;;;;;;;8.07;2.00;;;12.20;99.90;;;;;;5066884;28;20533;-60
2023/10/31 11:41:38;;;;;;;7.57;1.63;;;12.20;99.90;;;;;;5065285;28;20036;-61
2023/10/31 11:44:04;;;;;;;6.13;1.10;;;12.30;99.90;;;;;;5047432;28;20028;-61
2023/10/31 11:46:30;;;;;;;7.95;1.15;;;12.20;99.90;;;;;;5065120;28;20539;-61
2023/10/31 11:48:56;;;;;;;6.78;1.20;;;12.20;99.90;;;;;;5048960;28;20042;-61
2023/10/31 11:51:22;;;;;;;5.82;1.90;;;12.10;99.90;;;;;;5067457;28;20044;-61
2023/10/31 11:53:49;;;;;;;7.40;1.10;;;12.00;99.90;;;;;;5050034;28;20055;-61
2023/10/31 11:56:15;;;;;;;6.72;1.67;;;12.00;99.90;;;;;;5062855;28;20079;-60
2023/10/31 11:58:41;;;;;;;6.35;1.50;;;12.00;99.90;;;;;;5043849;28;20123;-61
2023/10/31 12:01:09;;;;;;;7.40;1.20;;;12.00;99.90;;;;;;5064353;28;20075;-61
2023/10/31 12:03:42;;;;;;;5.78;1.38;;;12.10;99.90;;;;;;5066901;28;20117;-60
2023/10/31 12:06:10;;;;;;;5.72;1.00;;;12.10;99.90;;;;;;5067825;28;20086;-60
2023/10/31 12:08:40;;;;;;;6.25;1.33;;;12.00;99.90;;;;;;5066156;28;20556;-61
2023/10/31 12:11:10;;;;;;;10.55;1.95;;;12.10;99.90;;;;;;5064460;28;20044;-61
2023/10/31 12:13:38;;;;;;;8.65;2.30;;;12.00;99.90;;;;;;5067908;28;20094;-60
2023/10/31 12:16:06;;;;;;;11.35;1.73;;;12.00;99.90;;;;;;5062491;28;20051;-61
2023/10/31 12:18:34;;;;;;;10.52;2.22;;;12.10;99.90;;;;;;5065357;28;20580;-60
2023/10/31 12:21:00;;;;;;;8.73;2.33;;;12.20;99.90;;;;;;5048315;28;20136;-60
2023/10/31 12:23:26;;;;;;;8.23;2.25;;;12.10;99.90;;;;;;5058226;28;20127;-60
2023/10/31 12:25:52;;;;;;;6.30;1.30;;;12.20;99.90;;;;;;5067288;28;20048;-61
2023/10/31 12:28:21;;;;;;;8.90;1.40;;;12.30;99.90;;;;;;5060079;28;20056;-61
2023/10/31 12:30:49;;;;;;;6.25;1.20;;;12.40;99.90;;;;;;5063711;28;20542;-60
2023/10/31 12:33:16;;;;;;;12.27;2.30;;;12.40;99.90;;;;;;5050495;28;20577;-60
2023/10/31 12:35:43;;;;;;;10.75;1.63;;;12.40;99.90;;;;;;5061835;28;20044;-60
2023/10/31 12:38:13;;;;;;;5.55;1.38;;;12.30;99.90;;;;;;5048489;28;20040;-61
2023/10/31 12:40:40;;;;;;;6.20;1.33;;;12.30;99.90;;;;;;5047535;28;20552;-61